Time;durP1;ratioP1;P1;durP2;ratioP2;P2;SDS_P1;SDS_P2;PMS_P1;PMS_P2;Temp;Humidity;BMP_temperature;BMP_pressure;BME280_temperature;BME280_humidity;BME280_pressure;Samples;Min_cycle;Max_cycle;Signal;HPM_P1;HPM_P2
2022/04/19 00:00:47;;;;;;;13.10;7.28;;;10.30;99.90;;;;;;5074779;28;20062;-56
2022/04/19 00:03:17;;;;;;;11.88;6.25;;;10.20;99.90;;;;;;5073274;28;20041;-56
2022/04/19 00:05:44;;;;;;;12.18;6.50;;;10.20;99.90;;;;;;5074427;28;20052;-56
2022/04/19 00:08:10;;;;;;;12.15;6.93;;;10.20;99.90;;;;;;5074464;28;20389;-58
2022/04/19 00:10:37;;;;;;;10.43;6.38;;;10.10;99.90;;;;;;5074397;28;20048;-56
2022/04/19 00:13:04;;;;;;;10.65;6.72;;;10.20;99.90;;;;;;5074073;28;20113;-56
2022/04/19 00:15:31;;;;;;;12.10;6.40;;;10.10;99.90;;;;;;5074578;28;20033;-56
2022/04/19 00:17:59;;;;;;;10.75;6.32;;;10.00;99.90;;;;;;5072915;28;20044;-55
2022/04/19 00:20:26;;;;;;;13.15;7.10;;;10.00;99.90;;;;;;5075034;28;20381;-56
2022/04/19 00:22:53;;;;;;;11.20;6.47;;;10.00;99.90;;;;;;5069704;28;20067;-56
2022/04/19 00:25:19;;;;;;;10.40;6.47;;;10.00;99.90;;;;;;5053622;28;20040;-56
2022/04/19 00:27:45;;;;;;;11.18;7.20;;;9.90;99.90;;;;;;5054125;28;20051;-56
2022/04/19 00:30:11;;;;;;;12.77;6.65;;;9.90;99.90;;;;;;5054296;28;20040;-56
2022/04/19 00:32:39;;;;;;;13.18;8.05;;;9.90;99.90;;;;;;5069544;28;20045;-56
2022/04/19 00:35:07;;;;;;;11.48;7.22;;;9.90;99.90;;;;;;5054041;28;20431;-56
2022/04/19 00:37:33;;;;;;;12.25;7.47;;;9.80;99.90;;;;;;5053679;28;20053;-56
2022/04/19 00:40:00;;;;;;;11.30;7.03;;;9.90;99.90;;;;;;5053904;28;20051;-56
2022/04/19 00:42:28;;;;;;;11.52;6.97;;;9.80;99.90;;;;;;5053796;28;20052;-56
2022/04/19 00:44:55;;;;;;;15.88;7.03;;;9.80;99.90;;;;;;5069194;28;20041;-56
2022/04/19 00:47:21;;;;;;;12.73;7.45;;;9.70;99.90;;;;;;5053693;28;20041;-56
2022/04/19 00:49:47;;;;;;;11.80;6.85;;;9.70;99.90;;;;;;5053650;28;20039;-56
2022/04/19 00:52:13;;;;;;;14.82;7.43;;;9.70;99.90;;;;;;5060984;28;20484;-58
2022/04/19 00:54:41;;;;;;;13.32;6.93;;;9.60;99.90;;;;;;5073942;28;20064;-60
2022/04/19 00:57:07;;;;;;;18.08;7.32;;;9.60;99.90;;;;;;5073657;28;20043;-58
2022/04/19 00:59:33;;;;;;;12.15;7.40;;;9.60;99.90;;;;;;5073493;28;20032;-58
2022/04/19 01:02:00;;;;;;;17.00;8.05;;;9.60;99.90;;;;;;5073458;28;20040;-57
2022/04/19 01:04:26;;;;;;;12.23;7.68;;;9.50;99.90;;;;;;5072082;28;20043;-56
2022/04/19 01:06:52;;;;;;;14.55;6.68;;;9.50;99.90;;;;;;5073355;28;20037;-56
2022/04/19 01:09:20;;;;;;;12.55;7.60;;;9.40;99.90;;;;;;5073233;28;20046;-57
2022/04/19 01:14:34;;;;;;;11.95;7.22;;;9.50;99.90;;;;;;5073016;28;20059;-57
2022/04/19 01:17:00;;;;;;;13.60;7.65;;;9.40;99.90;;;;;;5073006;28;20488;-56
2022/04/19 01:19:25;;;;;;;11.90;7.53;;;9.40;99.90;;;;;;5071826;28;20094;-56
2022/04/19 01:21:54;;;;;;;13.25;8.05;;;9.40;99.90;;;;;;5073129;28;20067;-56
2022/04/19 01:24:22;;;;;;;12.57;8.13;;;9.30;99.90;;;;;;5055097;28;20105;-56
2022/04/19 01:26:51;;;;;;;13.70;7.13;;;9.30;99.90;;;;;;5053022;28;20454;-56
2022/04/19 01:29:17;;;;;;;13.55;7.43;;;9.30;99.90;;;;;;5052331;28;20072;-56
2022/04/19 01:31:44;;;;;;;13.07;7.47;;;9.30;99.90;;;;;;5052773;28;20072;-56
2022/04/19 01:34:10;;;;;;;13.38;7.82;;;9.20;99.90;;;;;;5068077;28;20489;-56
2022/04/19 01:36:38;;;;;;;14.70;7.95;;;9.20;99.90;;;;;;5052726;28;20036;-57
2022/04/19 01:39:04;;;;;;;15.68;8.13;;;9.20;99.90;;;;;;5052516;28;20057;-56
2022/04/19 01:41:30;;;;;;;13.05;7.88;;;9.10;99.90;;;;;;5053661;28;20041;-56
2022/04/19 01:44:00;;;;;;;13.18;7.65;;;9.10;99.90;;;;;;5069224;28;20055;-57
2022/04/19 01:46:31;;;;;;;13.05;7.80;;;9.10;99.90;;;;;;5052821;28;20481;-56
2022/04/19 01:48:57;;;;;;;13.40;8.60;;;9.00;99.90;;;;;;5053626;28;20122;-56
2022/04/19 01:51:24;;;;;;;13.88;7.97;;;9.00;99.90;;;;;;5053622;28;20287;-55
2022/04/19 01:53:50;;;;;;;13.63;8.35;;;9.00;99.90;;;;;;5073562;28;20393;-57
2022/04/19 01:56:16;;;;;;;13.32;8.50;;;8.90;99.90;;;;;;5072978;28;20047;-56
2022/04/19 01:58:42;;;;;;;14.35;8.55;;;8.90;99.90;;;;;;5073235;28;20102;-56
2022/04/19 02:01:11;;;;;;;15.60;9.05;;;8.90;99.90;;;;;;5072981;28;20048;-56
2022/04/19 02:03:37;;;;;;;14.77;8.57;;;8.90;99.90;;;;;;5071807;28;20124;-56
2022/04/19 02:06:12;;;;;;;13.57;8.70;;;8.80;99.90;;;;;;5073184;28;20046;-56
2022/04/19 02:08:38;;;;;;;15.02;8.98;;;8.80;99.90;;;;;;5072770;28;20040;-56
2022/04/19 02:11:04;;;;;;;14.75;9.10;;;8.80;99.90;;;;;;5073238;28;20119;-56
2022/04/19 02:13:31;;;;;;;14.63;8.70;;;8.80;99.90;;;;;;5071235;28;20049;-58
2022/04/19 02:15:58;;;;;;;16.38;8.18;;;8.80;99.90;;;;;;5071210;28;20033;-56
2022/04/19 02:18:25;;;;;;;17.30;9.18;;;8.70;99.90;;;;;;5072398;28;20040;-57
2022/04/19 02:20:51;;;;;;;13.98;8.48;;;8.80;99.90;;;;;;5072506;28;20040;-57
2022/04/19 02:23:16;;;;;;;15.55;8.85;;;8.70;99.90;;;;;;5063567;28;20067;-57
2022/04/19 02:25:42;;;;;;;15.07;8.93;;;8.60;99.90;;;;;;5051694;28;20450;-57
2022/04/19 02:28:10;;;;;;;14.38;8.65;;;8.60;99.90;;;;;;5052346;28;20037;-57
2022/04/19 02:30:36;;;;;;;14.73;9.02;;;8.60;99.90;;;;;;5052149;28;20048;-57
2022/04/19 02:33:02;;;;;;;13.45;7.97;;;8.60;99.90;;;;;;5052251;28;20037;-57
2022/04/19 02:35:28;;;;;;;13.70;8.35;;;8.50;99.90;;;;;;5050677;28;20037;-56
2022/04/19 02:37:57;;;;;;;14.25;8.63;;;8.50;99.90;;;;;;5050679;28;20052;-57
2022/04/19 02:40:25;;;;;;;14.35;8.55;;;8.40;99.90;;;;;;5084703;28;20040;-57
2022/04/19 02:42:54;;;;;;;14.23;8.45;;;8.40;99.90;;;;;;5055971;28;20072;-57
2022/04/19 02:45:22;;;;;;;14.82;8.23;;;8.40;99.90;;;;;;5054921;28;20091;-57
2022/04/19 02:47:51;;;;;;;17.60;8.32;;;8.40;99.90;;;;;;5054921;28;20397;-57
2022/04/19 02:50:17;;;;;;;17.75;8.60;;;8.40;99.90;;;;;;5055941;28;20397;-55
2022/04/19 02:52:43;;;;;;;13.35;8.10;;;8.40;99.90;;;;;;5067076;28;20045;-57
2022/04/19 02:55:09;;;;;;;13.95;8.15;;;8.30;99.90;;;;;;5075839;28;20442;-56
2022/04/19 02:57:35;;;;;;;11.43;7.10;;;8.30;99.90;;;;;;5075652;28;20033;-57
2022/04/19 03:00:01;;;;;;;11.93;7.47;;;8.30;99.90;;;;;;5075893;28;20396;-57
2022/04/19 03:02:26;;;;;;;13.75;7.68;;;8.30;99.90;;;;;;5075911;28;20044;-56
2022/04/19 03:04:53;;;;;;;12.18;7.78;;;8.30;99.90;;;;;;5075727;28;20115;-57
2022/04/19 03:07:19;;;;;;;13.20;7.50;;;8.20;99.90;;;;;;5075716;28;20040;-56
2022/04/19 03:09:45;;;;;;;14.85;8.20;;;8.30;99.90;;;;;;5074478;28;20043;-57
2022/04/19 03:12:11;;;;;;;12.73;8.23;;;8.30;99.90;;;;;;5075348;28;20423;-56
2022/04/19 03:14:38;;;;;;;12.07;7.43;;;8.30;99.90;;;;;;5075373;28;20076;-57
2022/04/19 03:17:05;;;;;;;11.32;7.35;;;8.30;99.90;;;;;;5075293;28;20052;-57
2022/04/19 03:19:31;;;;;;;15.65;8.13;;;8.20;99.90;;;;;;5075393;28;20076;-57
2022/04/19 03:21:57;;;;;;;14.85;9.15;;;8.30;99.90;;;;;;5057835;28;20531;-57
2022/04/19 03:29:52;;;;;;;12.27;6.97;;;8.20;99.90;;;;;;5055288;28;20102;-56
2022/04/19 03:32:19;;;;;;;14.13;7.85;;;8.20;99.90;;;;;;5070429;28;20045;-57
2022/04/19 03:34:50;;;;;;;12.30;7.30;;;8.10;99.90;;;;;;5055100;28;20040;-58
2022/04/19 03:37:17;;;;;;;13.47;7.00;;;8.10;99.90;;;;;;5054883;28;20429;-57
2022/04/19 03:39:43;;;;;;;13.63;7.90;;;8.10;99.90;;;;;;5055178;28;20658;-57
2022/04/19 03:42:09;;;;;;;10.85;7.07;;;8.00;99.90;;;;;;5055123;28;20039;-56
2022/04/19 03:44:34;;;;;;;12.27;7.35;;;8.00;99.90;;;;;;5054873;28;20397;-56
2022/04/19 03:47:09;;;;;;;12.68;7.60;;;8.00;99.90;;;;;;5054736;28;20078;-56
2022/04/19 03:49:41;;;;;;;12.57;7.07;;;8.00;99.90;;;;;;5054742;28;20034;-57
2022/04/19 03:52:07;;;;;;;12.43;6.75;;;8.00;99.90;;;;;;5060438;28;20036;-56
2022/04/19 03:54:34;;;;;;;12.48;7.40;;;7.90;99.90;;;;;;5074458;28;20109;-57
2022/04/19 03:57:08;;;;;;;12.27;7.40;;;7.90;99.90;;;;;;5074536;28;20079;-59
2022/04/19 03:59:38;;;;;;;13.43;7.30;;;7.80;99.90;;;;;;5074613;28;20083;-58
2022/04/19 04:02:04;;;;;;;12.13;6.90;;;7.80;99.90;;;;;;5074373;28;20515;-57
2022/04/19 04:04:31;;;;;;;12.95;8.07;;;7.80;99.90;;;;;;5074713;28;20090;-58
2022/04/19 04:07:00;;;;;;;12.73;6.82;;;7.80;99.90;;;;;;5074684;28;20041;-56
2022/04/19 04:09:32;;;;;;;14.65;7.78;;;7.80;99.90;;;;;;5074452;28;20401;-56
2022/04/19 04:12:00;;;;;;;13.85;7.93;;;7.80;99.90;;;;;;5074636;28;20044;-56
2022/04/19 04:14:26;;;;;;;12.32;6.43;;;7.80;99.90;;;;;;5074441;28;20040;-56
2022/04/19 04:16:51;;;;;;;13.88;8.05;;;7.70;99.90;;;;;;5074103;28;20048;-56
2022/04/19 04:19:17;;;;;;;14.02;7.72;;;7.70;99.90;;;;;;5072883;28;20049;-56
2022/04/19 04:21:43;;;;;;;13.13;7.82;;;7.70;99.90;;;;;;5074188;28;20028;-56
2022/04/19 04:24:09;;;;;;;12.93;7.85;;;7.60;99.90;;;;;;5057842;28;20386;-56
2022/04/19 04:26:34;;;;;;;12.15;7.15;;;7.50;99.90;;;;;;5052730;28;20048;-57
2022/04/19 04:29:00;;;;;;;13.10;7.30;;;7.60;99.90;;;;;;5054337;28;20048;-57
2022/04/19 04:31:26;;;;;;;12.40;7.95;;;7.60;99.90;;;;;;5069521;28;20572;-57
2022/04/19 04:33:51;;;;;;;14.52;7.78;;;7.60;99.90;;;;;;5052559;28;20124;-57
2022/04/19 04:36:19;;;;;;;13.52;7.22;;;7.60;99.90;;;;;;5054136;28;20044;-57
2022/04/19 04:38:45;;;;;;;12.23;7.13;;;7.50;99.90;;;;;;5053847;28;20398;-57
2022/04/19 04:41:11;;;;;;;13.75;7.13;;;7.60;99.90;;;;;;5053844;28;20047;-57
2022/04/19 04:43:38;;;;;;;14.50;8.20;;;7.60;99.90;;;;;;5052576;28;20513;-57
2022/04/19 04:51:32;;;;;;;13.43;7.68;;;7.60;99.90;;;;;;5055137;28;20048;-56
2022/04/19 04:53:58;;;;;;;12.48;6.95;;;7.60;99.90;;;;;;5073455;28;20048;-55
2022/04/19 04:56:24;;;;;;;12.93;7.60;;;7.60;99.90;;;;;;5072185;28;20036;-57
2022/04/19 04:58:50;;;;;;;13.90;7.65;;;7.60;99.90;;;;;;5073497;28;20044;-57
2022/04/19 05:01:15;;;;;;;12.73;7.82;;;7.60;99.90;;;;;;5073626;28;20039;-56
2022/04/19 05:03:41;;;;;;;13.70;7.90;;;7.70;99.90;;;;;;5073062;28;20066;-56
2022/04/19 05:06:07;;;;;;;14.25;7.53;;;7.70;99.90;;;;;;5072600;28;20551;-57
2022/04/19 05:08:32;;;;;;;14.60;7.85;;;7.70;99.90;;;;;;5073183;28;20048;-55
2022/04/19 05:10:58;;;;;;;14.70;7.95;;;7.70;99.90;;;;;;5073372;28;20450;-57
2022/04/19 05:13:25;;;;;;;14.48;7.05;;;7.80;99.90;;;;;;5073290;28;20051;-55
2022/04/19 05:15:50;;;;;;;13.00;7.82;;;7.80;99.90;;;;;;5073263;28;20047;-57
2022/04/19 05:18:16;;;;;;;14.20;7.70;;;7.90;99.90;;;;;;5073056;28;20455;-57
2022/04/19 05:20:42;;;;;;;16.27;8.75;;;7.90;99.90;;;;;;5072945;28;20060;-57
2022/04/19 05:23:08;;;;;;;14.85;7.40;;;8.00;99.90;;;;;;5065028;28;20118;-56
2022/04/19 05:25:33;;;;;;;14.77;8.15;;;8.00;99.90;;;;;;5068079;28;20114;-56
2022/04/19 05:27:59;;;;;;;13.98;7.43;;;8.00;99.90;;;;;;5066902;28;20033;-57
2022/04/19 05:30:25;;;;;;;13.68;7.90;;;8.10;99.90;;;;;;5050338;28;20036;-57
2022/04/19 05:32:51;;;;;;;15.50;8.50;;;8.20;99.90;;;;;;5051525;28;20056;-57
2022/04/19 05:35:17;;;;;;;15.75;8.30;;;8.20;99.90;;;;;;5051408;28;20052;-56
2022/04/19 05:37:42;;;;;;;13.40;8.05;;;8.20;99.90;;;;;;5050819;28;20049;-57
2022/04/19 05:40:09;;;;;;;16.77;8.18;;;8.30;99.90;;;;;;5050700;28;20040;-57
2022/04/19 05:42:35;;;;;;;15.43;9.15;;;8.40;99.90;;;;;;5051017;28;20374;-56
2022/04/19 05:45:00;;;;;;;14.00;8.00;;;8.40;99.90;;;;;;5050949;28;20055;-57
2022/04/19 05:47:26;;;;;;;14.75;8.52;;;8.40;99.90;;;;;;5050766;28;20083;-57
2022/04/19 05:49:52;;;;;;;15.20;8.52;;;8.50;99.90;;;;;;5058767;28;20041;-57
2022/04/19 05:52:17;;;;;;;13.88;8.02;;;8.60;99.90;;;;;;5040162;28;20720;-57
2022/04/19 05:54:43;;;;;;;16.25;9.38;;;8.60;99.90;;;;;;5041150;28;20040;-57
2022/04/19 05:57:10;;;;;;;16.05;8.10;;;8.70;99.90;;;;;;5037247;28;20051;-57
2022/04/19 05:59:36;;;;;;;14.30;7.72;;;8.80;99.90;;;;;;5030949;28;20037;-57
2022/04/19 06:04:53;;;;;;;14.75;8.38;;;8.90;99.90;;;;;;5030870;28;20041;-57
2022/04/19 06:07:26;;;;;;;14.32;8.25;;;9.00;99.90;;;;;;5030593;28;20041;-57
2022/04/19 06:09:51;;;;;;;14.90;7.75;;;9.10;99.90;;;;;;5030807;28;20044;-56
2022/04/19 06:12:17;;;;;;;15.82;8.23;;;9.10;99.90;;;;;;5029226;28;20355;-57
2022/04/19 06:14:44;;;;;;;15.25;8.45;;;9.20;99.90;;;;;;5030354;28;20544;-56
2022/04/19 06:17:21;;;;;;;16.23;8.10;;;9.20;99.90;;;;;;5030551;28;20033;-57
2022/04/19 06:19:47;;;;;;;15.40;7.78;;;9.30;99.90;;;;;;5030433;28;20041;-57
2022/04/19 06:22:13;;;;;;;14.68;7.50;;;9.40;99.90;;;;;;5029423;28;20037;-57
2022/04/19 06:24:39;;;;;;;17.85;8.20;;;9.40;99.90;;;;;;5050628;28;20041;-56
2022/04/19 06:27:05;;;;;;;16.67;9.20;;;9.50;99.90;;;;;;5049140;28;20055;-57
2022/04/19 06:29:30;;;;;;;14.18;7.60;;;9.50;99.90;;;;;;5065964;28;20120;-56
2022/04/19 06:31:56;;;;;;;18.67;8.93;;;9.60;99.90;;;;;;5050481;28;20107;-57
2022/04/19 06:34:22;;;;;;;15.98;8.85;;;9.70;99.90;;;;;;5050546;28;20041;-57
2022/04/19 06:36:47;;;;;;;13.77;8.02;;;9.80;99.90;;;;;;5050674;28;20064;-55
2022/04/19 06:39:13;;;;;;;13.15;8.15;;;9.80;99.90;;;;;;5050530;28;20053;-57
2022/04/19 06:41:41;;;;;;;16.13;9.25;;;9.90;99.90;;;;;;5050502;28;20037;-56
2022/04/19 06:44:08;;;;;;;16.77;9.35;;;9.90;99.90;;;;;;5050410;28;20408;-57
2022/04/19 06:46:36;;;;;;;17.02;9.00;;;10.00;99.90;;;;;;5050214;28;20040;-56
2022/04/19 06:49:03;;;;;;;16.55;8.48;;;10.10;99.90;;;;;;5065773;28;20056;-56
2022/04/19 06:51:30;;;;;;;16.42;8.27;;;10.20;99.90;;;;;;5051347;28;20075;-57
2022/04/19 06:53:57;;;;;;;12.90;8.02;;;10.30;99.90;;;;;;5070239;28;20481;-56
2022/04/19 06:56:23;;;;;;;13.05;7.28;;;10.40;99.90;;;;;;5070341;28;20041;-56
2022/04/19 06:58:49;;;;;;;16.02;7.68;;;10.50;99.90;;;;;;5070367;28;20091;-60
2022/04/19 07:01:14;;;;;;;15.88;8.10;;;10.60;99.90;;;;;;5070270;28;20032;-56
2022/04/19 07:03:40;;;;;;;12.57;7.18;;;10.80;99.90;;;;;;5070544;28;20550;-56
2022/04/19 07:06:06;;;;;;;13.27;7.07;;;11.00;99.90;;;;;;5070259;28;20044;-57
2022/04/19 07:08:32;;;;;;;13.52;7.07;;;11.10;99.90;;;;;;5070194;28;20036;-56
2022/04/19 07:11:00;;;;;;;12.20;7.00;;;11.20;99.90;;;;;;5070437;28;20084;-56
2022/04/19 07:13:27;;;;;;;13.23;6.50;;;11.20;99.90;;;;;;5068808;28;20048;-57
2022/04/19 07:15:53;;;;;;;13.43;6.38;;;11.30;99.90;;;;;;5045524;28;20490;-57
2022/04/19 07:18:23;;;;;;;11.43;6.32;;;11.50;99.90;;;;;;5029758;28;20041;-56
2022/04/19 07:29:03;;;;;;;12.45;6.75;;;12.00;99.90;;;;;;5032124;28;20076;-57
2022/04/19 07:31:29;;;;;;;12.07;6.53;;;12.20;99.90;;;;;;5033328;28;20045;-57
2022/04/19 07:33:54;;;;;;;13.30;6.95;;;12.20;99.90;;;;;;5033339;28;20053;-56
2022/04/19 07:36:20;;;;;;;13.00;6.20;;;12.30;99.90;;;;;;5033459;28;20080;-57
2022/04/19 07:38:46;;;;;;;11.25;6.47;;;12.30;99.90;;;;;;5032962;28;20053;-57
2022/04/19 07:41:12;;;;;;;11.57;5.75;;;12.40;99.90;;;;;;5033259;28;20041;-57
2022/04/19 07:43:38;;;;;;;10.38;5.18;;;12.50;99.90;;;;;;5033208;28;20175;-57
2022/04/19 07:46:04;;;;;;;9.85;5.57;;;12.50;99.90;;;;;;5033582;28;20041;-56
2022/04/19 07:48:31;;;;;;;9.50;5.30;;;12.50;99.90;;;;;;5033275;28;20125;-56
2022/04/19 07:50:57;;;;;;;9.55;5.35;;;12.60;99.90;;;;;;5033180;28;20394;-56
2022/04/19 07:53:23;;;;;;;10.55;5.22;;;12.80;99.90;;;;;;5066381;28;20046;-57
2022/04/19 07:55:49;;;;;;;10.95;6.43;;;12.90;99.90;;;;;;5073074;28;20119;-60
2022/04/19 07:58:15;;;;;;;11.95;5.88;;;12.90;99.90;;;;;;5072973;28;20090;-56
2022/04/19 08:00:41;;;;;;;10.32;6.53;;;12.80;99.90;;;;;;5073388;28;20028;-57
2022/04/19 08:03:07;;;;;;;12.85;7.32;;;13.00;99.90;;;;;;5070963;28;20131;-58
2022/04/19 08:05:32;;;;;;;11.52;6.60;;;13.00;99.90;;;;;;5073252;28;20116;-57
2022/04/19 08:07:58;;;;;;;11.48;5.18;;;13.10;99.90;;;;;;5051848;28;20072;-58
2022/04/19 08:10:24;;;;;;;11.30;5.47;;;13.20;99.90;;;;;;5043012;28;20043;-56
2022/04/19 08:12:50;;;;;;;12.52;5.22;;;13.20;99.90;;;;;;5034107;28;20049;-56
2022/04/19 08:15:15;;;;;;;8.73;4.10;;;13.30;99.90;;;;;;5032819;28;20069;-57
2022/04/19 08:17:41;;;;;;;9.80;4.63;;;13.40;99.90;;;;;;5032757;28;20029;-56
2022/04/19 08:20:08;;;;;;;10.60;4.03;;;13.40;99.90;;;;;;5041118;28;20557;-56
2022/04/19 08:22:35;;;;;;;7.28;3.60;;;13.40;99.90;;;;;;5049025;28;20151;-56
2022/04/19 08:25:01;;;;;;;7.50;3.45;;;13.50;99.90;;;;;;5032629;28;20559;-57
2022/04/19 08:27:27;;;;;;;6.85;2.97;;;13.50;99.90;;;;;;5032616;28;20029;-57
2022/04/19 08:29:52;;;;;;;8.88;3.70;;;13.50;99.90;;;;;;5032548;28;20052;-56
2022/04/19 08:32:18;;;;;;;9.10;3.72;;;13.50;99.90;;;;;;5032615;28;20065;-57
2022/04/19 08:34:45;;;;;;;10.20;4.22;;;13.60;99.90;;;;;;5032887;28;20099;-56
2022/04/19 08:37:11;;;;;;;7.55;3.80;;;13.80;99.90;;;;;;5032858;28;20067;-56
2022/04/19 08:39:37;;;;;;;7.35;3.40;;;13.80;99.90;;;;;;5032544;28;20046;-57
2022/04/19 08:42:05;;;;;;;12.52;3.30;;;13.90;99.90;;;;;;5032884;28;20099;-57
2022/04/19 08:44:33;;;;;;;7.32;3.30;;;13.80;99.90;;;;;;5032623;28;20037;-57
2022/04/19 08:46:59;;;;;;;7.68;3.00;;;13.90;99.90;;;;;;5032415;28;20502;-57
2022/04/19 08:49:25;;;;;;;7.72;3.15;;;14.00;99.90;;;;;;5032498;28;20041;-57
2022/04/19 08:51:52;;;;;;;6.47;2.65;;;14.00;99.90;;;;;;5038889;28;20365;-58
2022/04/19 08:59:46;;;;;;;7.18;2.58;;;14.20;98.50;;;;;;5072055;28;20040;-56
2022/04/19 09:02:20;;;;;;;6.35;2.65;;;14.30;98.10;;;;;;5070678;28;20147;-56
2022/04/19 09:04:46;;;;;;;6.43;2.67;;;14.30;98.30;;;;;;5072244;28;20041;-56
2022/04/19 09:07:12;;;;;;;6.40;2.30;;;14.40;98.70;;;;;;5072127;28;20074;-56
2022/04/19 09:09:38;;;;;;;5.68;2.17;;;14.50;97.00;;;;;;5071907;28;20045;-56
2022/04/19 09:12:12;;;;;;;4.47;1.65;;;14.50;97.60;;;;;;5071844;28;20032;-56
2022/04/19 09:14:58;;;;;;;4.53;1.70;;;14.60;97.90;;;;;;5071460;28;20056;-56
2022/04/19 09:17:31;;;;;;;5.72;1.48;;;14.70;95.70;;;;;;5069126;28;20040;-56
2022/04/19 09:20:15;;;;;;;5.85;1.63;;;14.60;94.50;;;;;;5071747;28;20067;-56
2022/04/19 09:22:42;;;;;;;5.45;1.75;;;14.60;95.10;;;;;;5066407;28;20040;-56
2022/04/19 09:25:18;;;;;;;4.68;1.50;;;14.70;95.10;;;;;;5052590;28;20080;-56
2022/04/19 09:27:48;;;;;;;6.18;1.63;;;14.80;94.80;;;;;;5052234;28;20542;-56
2022/04/19 09:30:19;;;;;;;4.63;1.85;;;14.90;95.00;;;;;;5051752;28;20041;-56
2022/04/19 09:33:06;;;;;;;4.75;1.75;;;14.80;95.00;;;;;;5052888;28;20110;-56
2022/04/19 09:35:43;;;;;;;6.47;2.20;;;14.90;95.00;;;;;;5052340;28;20068;-56
2022/04/19 09:38:10;;;;;;;7.90;2.10;;;14.90;94.50;;;;;;5052289;28;20132;-56
2022/04/19 09:40:44;;;;;;;5.45;1.83;;;15.00;95.10;;;;;;5052600;28;20098;-58
2022/04/19 09:43:23;;;;;;;5.00;2.20;;;15.10;95.00;;;;;;5052461;28;20056;-57
2022/04/19 09:45:58;;;;;;;5.72;2.05;;;15.00;94.60;;;;;;5052724;28;20045;-56
2022/04/19 09:48:28;;;;;;;7.18;2.13;;;15.20;95.80;;;;;;5052904;28;20072;-57
2022/04/19 09:51:06;;;;;;;5.78;2.20;;;15.20;95.10;;;;;;5050590;28;20045;-60
2022/04/19 09:53:44;;;;;;;6.20;2.42;;;15.20;94.40;;;;;;5070149;28;20072;-59
2022/04/19 09:56:16;;;;;;;7.53;2.63;;;15.20;95.30;;;;;;5071035;28;20048;-59
2022/04/19 09:58:47;;;;;;;6.03;2.50;;;15.30;95.60;;;;;;5072855;28;20039;-59
2022/04/19 10:09:26;;;;;;;6.93;2.67;;;15.60;95.50;;;;;;5072418;28;20119;-59
2022/04/19 10:11:52;;;;;;;5.20;2.20;;;15.60;94.90;;;;;;5072268;28;20279;-59
2022/04/19 10:14:22;;;;;;;5.78;2.67;;;15.60;94.40;;;;;;5070843;28;20040;-58
2022/04/19 10:16:48;;;;;;;6.38;2.88;;;15.70;95.30;;;;;;5072156;28;20094;-58
2022/04/19 10:19:15;;;;;;;8.00;2.90;;;15.80;96.20;;;;;;5070957;28;20040;-59
2022/04/19 10:21:42;;;;;;;6.50;3.10;;;15.90;95.40;;;;;;5072325;28;20043;-59
2022/04/19 10:24:12;;;;;;;7.07;2.78;;;16.00;95.40;;;;;;5055840;28;20461;-58
2022/04/19 10:26:49;;;;;;;7.55;2.63;;;16.00;94.80;;;;;;5051973;28;20080;-59
2022/04/19 10:29:25;;;;;;;5.47;2.30;;;16.10;95.00;;;;;;5051943;28;20072;-59
2022/04/19 10:32:01;;;;;;;6.63;1.80;;;16.00;94.50;;;;;;5051868;28;20052;-60
2022/04/19 10:34:29;;;;;;;6.72;2.33;;;16.00;94.70;;;;;;5052056;28;20048;-59
2022/04/19 10:37:01;;;;;;;4.70;1.85;;;16.10;95.00;;;;;;5052002;28;20080;-58
2022/04/19 10:39:32;;;;;;;5.40;2.40;;;16.10;93.90;;;;;;5051708;28;20175;-59
2022/04/19 10:42:05;;;;;;;6.00;2.15;;;16.10;94.50;;;;;;5051836;28;20072;-59
2022/04/19 10:44:43;;;;;;;8.45;3.33;;;16.20;94.70;;;;;;5051740;28;20041;-59
2022/04/19 10:47:17;;;;;;;6.88;3.20;;;16.40;95.60;;;;;;5051830;28;20489;-59
2022/04/19 10:50:07;;;;;;;7.15;3.17;;;16.20;94.50;;;;;;5051839;28;20128;-59
2022/04/19 10:52:44;;;;;;;7.97;3.35;;;16.40;94.60;;;;;;5061737;28;20090;-58
2022/04/19 10:55:11;;;;;;;6.18;2.58;;;16.20;93.90;;;;;;5071979;28;20133;-59
2022/04/19 10:58:05;;;;;;;6.60;2.80;;;16.30;94.60;;;;;;5071939;28;20036;-59
2022/04/19 11:00:34;;;;;;;6.22;2.67;;;16.30;94.40;;;;;;5071684;28;20040;-59
2022/04/19 11:03:02;;;;;;;6.07;2.53;;;16.30;94.40;;;;;;5074178;28;20420;-59
2022/04/19 11:05:36;;;;;;;6.63;2.83;;;16.30;94.80;;;;;;5075600;28;20049;-59
2022/04/19 11:08:25;;;;;;;6.38;2.58;;;16.30;94.70;;;;;;5075384;28;20157;-59
2022/04/19 11:10:56;;;;;;;6.35;3.03;;;16.40;93.30;;;;;;5068606;28;20052;-58
2022/04/19 11:13:27;;;;;;;6.95;2.90;;;16.50;94.50;;;;;;5075282;28;20040;-59
2022/04/19 11:16:05;;;;;;;6.82;2.72;;;16.60;94.80;;;;;;5074834;28;20484;-59
2022/04/19 11:18:33;;;;;;;7.10;3.28;;;16.50;93.20;;;;;;5075163;28;20136;-58
2022/04/19 11:21:07;;;;;;;6.50;3.17;;;16.60;94.00;;;;;;5075139;28;20116;-59
2022/04/19 11:23:43;;;;;;;5.60;2.78;;;16.70;93.80;;;;;;5062477;28;20083;-59
2022/04/19 11:26:28;;;;;;;7.22;3.08;;;16.60;93.80;;;;;;5070363;28;20099;-59
2022/04/19 11:29:09;;;;;;;6.20;2.40;;;16.60;93.50;;;;;;5054842;28;20037;-59
2022/04/19 11:31:35;;;;;;;5.50;2.78;;;16.50;93.10;;;;;;5052256;28;20036;-59
2022/04/19 11:34:13;;;;;;;5.95;2.90;;;16.50;92.90;;;;;;5045635;28;20119;-59
2022/04/19 11:36:39;;;;;;;6.78;2.70;;;16.50;93.70;;;;;;5036582;28;20385;-58
2022/04/19 11:39:05;;;;;;;5.75;2.80;;;16.50;93.00;;;;;;5034878;28;20137;-59
2022/04/19 11:47:03;;;;;;;6.43;3.55;;;16.70;93.60;;;;;;5043450;28;20509;-59
2022/04/19 11:49:34;;;;;;;7.35;3.72;;;16.90;94.00;;;;;;5054725;28;20072;-59
2022/04/19 11:52:08;;;;;;;8.43;3.92;;;16.80;93.70;;;;;;5054631;28;20388;-59
2022/04/19 11:54:34;;;;;;;6.20;3.60;;;16.90;94.50;;;;;;5054570;28;20453;-59
2022/04/19 11:57:05;;;;;;;8.05;3.90;;;16.90;94.60;;;;;;5054598;28;20110;-59
2022/04/19 11:59:33;;;;;;;8.35;3.80;;;16.80;94.10;;;;;;5054882;28;20067;-57
2022/04/19 12:02:00;;;;;;;7.97;3.85;;;17.00;94.80;;;;;;5054548;28;20037;-58
2022/04/19 12:04:26;;;;;;;6.97;3.60;;;17.10;94.50;;;;;;5054530;28;20041;-58
2022/04/19 12:07:01;;;;;;;7.65;3.97;;;17.20;94.10;;;;;;5054182;28;20045;-58
2022/04/19 12:09:28;;;;;;;7.75;4.20;;;17.00;93.00;;;;;;5052807;28;20056;-59
2022/04/19 12:11:55;;;;;;;8.00;3.30;;;17.10;93.10;;;;;;5054124;28;20469;-58
2022/04/19 12:14:25;;;;;;;10.18;3.83;;;17.10;93.10;;;;;;5053701;28;20070;-58
2022/04/19 12:17:03;;;;;;;6.82;3.38;;;17.10;93.50;;;;;;5054096;28;20563;-58
2022/04/19 12:19:46;;;;;;;8.27;3.78;;;17.10;92.80;;;;;;5054019;28;20079;-58
2022/04/19 12:22:20;;;;;;;6.60;3.00;;;17.10;92.50;;;;;;5052859;28;20040;-58
2022/04/19 12:24:49;;;;;;;8.02;2.83;;;17.20;92.90;;;;;;5052839;28;20041;-59
2022/04/19 12:27:15;;;;;;;5.35;2.38;;;17.20;92.60;;;;;;5052670;28;20051;-58
2022/04/19 12:30:04;;;;;;;7.03;2.75;;;17.20;92.30;;;;;;5053579;28;20037;-59
2022/04/19 12:32:49;;;;;;;5.55;2.53;;;17.20;91.40;;;;;;5053484;28;20401;-59
2022/04/19 12:35:17;;;;;;;5.47;2.65;;;17.20;91.70;;;;;;5053189;28;20099;-58
2022/04/19 12:37:43;;;;;;;5.88;2.50;;;17.20;92.00;;;;;;5052056;28;20056;-59
2022/04/19 12:40:09;;;;;;;5.85;2.65;;;17.30;91.50;;;;;;5053726;28;20036;-57
2022/04/19 12:42:49;;;;;;;8.30;3.08;;;17.10;92.10;;;;;;5053741;28;20084;-57
2022/04/19 12:45:15;;;;;;;5.68;2.70;;;17.20;91.40;;;;;;5044899;28;20033;-59
2022/04/19 12:47:50;;;;;;;9.15;2.70;;;17.20;92.00;;;;;;5040580;28;20105;-57
2022/04/19 12:50:20;;;;;;;7.10;2.60;;;17.40;91.90;;;;;;5041543;28;20045;-57
2022/04/19 12:52:47;;;;;;;5.35;2.58;;;17.20;91.10;;;;;;5045899;28;20499;-57
2022/04/19 12:55:14;;;;;;;5.47;2.47;;;17.10;91.40;;;;;;5039816;28;20048;-58
2022/04/19 12:57:42;;;;;;;6.35;2.50;;;17.20;91.10;;;;;;5039737;28;20584;-58
2022/04/19 13:00:13;;;;;;;6.22;2.67;;;17.10;90.40;;;;;;5033476;28;20044;-58
2022/04/19 13:02:41;;;;;;;6.15;2.00;;;17.20;91.50;;;;;;5032589;28;20425;-58
2022/04/19 13:05:07;;;;;;;5.63;2.30;;;17.30;91.50;;;;;;5033507;28;20052;-58
2022/04/19 13:13:07;;;;;;;5.60;2.65;;;17.40;90.80;;;;;;5028690;28;20080;-58
2022/04/19 13:15:34;;;;;;;6.68;3.20;;;17.40;91.20;;;;;;5033912;28;20371;-58
2022/04/19 13:18:00;;;;;;;7.72;3.08;;;17.40;90.90;;;;;;5033495;28;20077;-49
2022/04/19 13:20:26;;;;;;;6.05;2.65;;;17.40;91.70;;;;;;5032952;28;20036;-48
2022/04/19 13:22:52;;;;;;;5.57;2.58;;;17.40;91.40;;;;;;5038630;28;20099;-51
2022/04/19 13:25:20;;;;;;;6.05;2.45;;;17.60;91.40;;;;;;5052264;28;20045;-48
2022/04/19 13:27:47;;;;;;;7.53;2.80;;;17.50;90.60;;;;;;5051654;28;20044;-50
2022/04/19 13:30:13;;;;;;;6.03;2.30;;;17.50;90.50;;;;;;5052988;28;20445;-47
2022/04/19 13:32:40;;;;;;;5.93;2.60;;;17.50;90.30;;;;;;5052614;28;20037;-51
2022/04/19 13:35:07;;;;;;;6.15;2.80;;;17.60;90.20;;;;;;5052575;28;20512;-48
2022/04/19 13:40:18;;;;;;;6.68;3.40;;;17.40;90.50;;;;;;5052755;28;20048;-48
2022/04/19 13:42:44;;;;;;;6.45;2.75;;;17.30;90.40;;;;;;5052562;28;20072;-48